Main page
METAR-TAF:

METAR-TAF

Airports :

Melilla Airport

Melilla, Spain

latitude: 35-17N, longitude: 002-57W, elevation: 47 m

Current weather observation

The report was made 26 minutes ago, at 21:00 UTC
Wind 7 kt from the East/Southeast, varying between East/Northeast and South/Southeast
Temperature 13°C
Humidity 72%
Pressure 1025 hPa
Visibility 10 km or more
Few clouds at a height of 2600 ft
Scattered clouds at a height of 3400 ft

METAR: GEML 212100Z AUTO 11007KT 060V160 9999 FEW026 SCT034 13/08 Q1025

Time: 22:26 (21:26 UTC)

Forecast

The report was made 4 hours and 26 minutes ago, at 17:00 UTC
Forecast valid from 21 at 18 UTC to 22 at 18 UTC
Wind 8 kt from the East
Visibility 10 km or more
Few clouds at a height of 1200 ft
Scattered clouds at a height of 3000 ft

TAF: GEML 211700Z 2118/2218 08008KT 9999 FEW012 SCT030 TX16/2214Z TN11/2206Z

Weather observations and forecasts of more than 4000 airports (METAR and TAF reports).

The available stations are represented by yellow and red dots on the map.

Hover mouse over dot to see the name of the station.

Then click to see weather observations and forecasts.

To change the map : click on the green buttons with a black cross to zoom in, on the green button with a dash to zoom out, or on the green arrows for adjacent maps.


METAR-TAF: